sensor_id;sensor_type;location;lat;lon;timestamp;P1;durP1;ratioP1;P2;durP2;ratioP2
5638;SDS011;2841;44.526;11.360;2023-05-23T00:01:47;15.67;;;7.70;;
5638;SDS011;2841;44.526;11.360;2023-05-23T00:04:14;18.20;;;9.27;;
5638;SDS011;2841;44.526;11.360;2023-05-23T00:06:43;13.80;;;8.97;;
5638;SDS011;2841;44.526;11.360;2023-05-23T00:09:11;14.43;;;9.70;;
5638;SDS011;2841;44.526;11.360;2023-05-23T00:11:39;16.23;;;9.70;;
5638;SDS011;2841;44.526;11.360;2023-05-23T00:14:10;15.27;;;9.93;;
5638;SDS011;2841;44.526;11.360;2023-05-23T00:16:38;15.03;;;9.43;;
5638;SDS011;2841;44.526;11.360;2023-05-23T00:19:06;16.00;;;10.13;;
5638;SDS011;2841;44.526;11.360;2023-05-23T00:21:34;12.30;;;8.50;;
5638;SDS011;2841;44.526;11.360;2023-05-23T00:24:01;12.93;;;9.47;;
5638;SDS011;2841;44.526;11.360;2023-05-23T00:26:28;12.03;;;8.63;;
5638;SDS011;2841;44.526;11.360;2023-05-23T00:28:56;13.70;;;9.50;;
5638;SDS011;2841;44.526;11.360;2023-05-23T00:31:24;17.27;;;10.20;;
5638;SDS011;2841;44.526;11.360;2023-05-23T00:33:51;17.13;;;9.77;;
5638;SDS011;2841;44.526;11.360;2023-05-23T00:36:18;22.40;;;10.10;;
5638;SDS011;2841;44.526;11.360;2023-05-23T00:38:46;11.97;;;8.60;;
5638;SDS011;2841;44.526;11.360;2023-05-23T00:41:13;39.67;;;10.53;;
5638;SDS011;2841;44.526;11.360;2023-05-23T00:43:42;13.80;;;9.80;;
5638;SDS011;2841;44.526;11.360;2023-05-23T00:46:09;13.53;;;8.63;;
5638;SDS011;2841;44.526;11.360;2023-05-23T00:48:38;15.03;;;9.13;;
5638;SDS011;2841;44.526;11.360;2023-05-23T00:51:05;12.50;;;8.77;;
5638;SDS011;2841;44.526;11.360;2023-05-23T00:53:32;15.70;;;8.60;;
5638;SDS011;2841;44.526;11.360;2023-05-23T00:56:00;12.30;;;8.87;;
5638;SDS011;2841;44.526;11.360;2023-05-23T00:58:27;14.97;;;10.37;;
5638;SDS011;2841;44.526;11.360;2023-05-23T01:00:54;12.03;;;7.90;;
5638;SDS011;2841;44.526;11.360;2023-05-23T01:03:21;14.27;;;8.07;;
5638;SDS011;2841;44.526;11.360;2023-05-23T01:05:54;20.93;;;9.03;;
5638;SDS011;2841;44.526;11.360;2023-05-23T01:08:20;14.43;;;9.73;;
5638;SDS011;2841;44.526;11.360;2023-05-23T01:10:47;14.57;;;9.73;;
5638;SDS011;2841;44.526;11.360;2023-05-23T01:13:17;16.00;;;9.40;;
5638;SDS011;2841;44.526;11.360;2023-05-23T01:15:49;16.70;;;9.73;;
5638;SDS011;2841;44.526;11.360;2023-05-23T01:18:22;13.10;;;9.43;;
5638;SDS011;2841;44.526;11.360;2023-05-23T01:20:56;14.27;;;8.70;;
5638;SDS011;2841;44.526;11.360;2023-05-23T01:23:39;13.00;;;9.00;;
5638;SDS011;2841;44.526;11.360;2023-05-23T01:26:31;19.80;;;9.90;;
5638;SDS011;2841;44.526;11.360;2023-05-23T01:29:13;12.20;;;9.37;;
5638;SDS011;2841;44.526;11.360;2023-05-23T01:31:46;14.23;;;8.50;;
5638;SDS011;2841;44.526;11.360;2023-05-23T01:34:18;16.50;;;10.07;;
5638;SDS011;2841;44.526;11.360;2023-05-23T01:36:48;14.10;;;9.27;;
5638;SDS011;2841;44.526;11.360;2023-05-23T01:39:15;12.87;;;9.47;;
5638;SDS011;2841;44.526;11.360;2023-05-23T01:41:42;22.93;;;9.33;;
5638;SDS011;2841;44.526;11.360;2023-05-23T01:44:10;14.20;;;9.53;;
5638;SDS011;2841;44.526;11.360;2023-05-23T01:46:38;15.47;;;9.43;;
5638;SDS011;2841;44.526;11.360;2023-05-23T01:49:06;14.77;;;9.77;;
5638;SDS011;2841;44.526;11.360;2023-05-23T01:51:35;21.23;;;8.53;;
5638;SDS011;2841;44.526;11.360;2023-05-23T01:54:03;14.97;;;9.47;;
5638;SDS011;2841;44.526;11.360;2023-05-23T01:56:30;17.50;;;8.90;;
5638;SDS011;2841;44.526;11.360;2023-05-23T01:58:58;16.27;;;10.03;;
5638;SDS011;2841;44.526;11.360;2023-05-23T02:01:27;14.40;;;8.80;;
5638;SDS011;2841;44.526;11.360;2023-05-23T02:03:54;12.63;;;8.50;;
5638;SDS011;2841;44.526;11.360;2023-05-23T02:06:21;11.50;;;8.20;;
5638;SDS011;2841;44.526;11.360;2023-05-23T02:08:48;12.37;;;9.37;;
5638;SDS011;2841;44.526;11.360;2023-05-23T02:11:15;12.73;;;7.90;;
5638;SDS011;2841;44.526;11.360;2023-05-23T02:13:42;22.37;;;11.37;;
5638;SDS011;2841;44.526;11.360;2023-05-23T02:16:09;16.23;;;10.20;;
5638;SDS011;2841;44.526;11.360;2023-05-23T02:18:39;12.80;;;9.23;;
5638;SDS011;2841;44.526;11.360;2023-05-23T02:21:06;16.73;;;9.93;;
5638;SDS011;2841;44.526;11.360;2023-05-23T02:23:33;14.17;;;9.73;;
5638;SDS011;2841;44.526;11.360;2023-05-23T02:26:00;16.00;;;10.20;;
5638;SDS011;2841;44.526;11.360;2023-05-23T02:28:26;12.87;;;8.83;;
5638;SDS011;2841;44.526;11.360;2023-05-23T02:30:54;13.13;;;8.63;;
5638;SDS011;2841;44.526;11.360;2023-05-23T02:33:21;22.97;;;9.90;;
5638;SDS011;2841;44.526;11.360;2023-05-23T02:35:49;20.27;;;10.60;;
5638;SDS011;2841;44.526;11.360;2023-05-23T02:38:16;14.70;;;10.20;;
5638;SDS011;2841;44.526;11.360;2023-05-23T02:40:44;15.90;;;9.47;;
5638;SDS011;2841;44.526;11.360;2023-05-23T02:43:11;17.23;;;8.77;;
5638;SDS011;2841;44.526;11.360;2023-05-23T02:45:38;12.50;;;9.60;;
5638;SDS011;2841;44.526;11.360;2023-05-23T02:48:05;13.60;;;7.93;;
5638;SDS011;2841;44.526;11.360;2023-05-23T02:50:32;17.10;;;10.17;;
5638;SDS011;2841;44.526;11.360;2023-05-23T02:53:00;12.50;;;9.90;;
5638;SDS011;2841;44.526;11.360;2023-05-23T02:55:27;18.53;;;10.73;;
5638;SDS011;2841;44.526;11.360;2023-05-23T02:57:55;18.77;;;10.47;;
5638;SDS011;2841;44.526;11.360;2023-05-23T03:00:22;16.83;;;10.50;;
5638;SDS011;2841;44.526;11.360;2023-05-23T03:02:50;13.17;;;9.20;;
5638;SDS011;2841;44.526;11.360;2023-05-23T03:05:17;12.23;;;9.60;;
5638;SDS011;2841;44.526;11.360;2023-05-23T03:07:44;12.30;;;9.23;;
5638;SDS011;2841;44.526;11.360;2023-05-23T03:10:13;15.30;;;9.70;;
5638;SDS011;2841;44.526;11.360;2023-05-23T03:12:40;12.93;;;9.30;;
5638;SDS011;2841;44.526;11.360;2023-05-23T03:15:08;13.30;;;8.70;;
5638;SDS011;2841;44.526;11.360;2023-05-23T03:17:35;18.23;;;8.33;;
5638;SDS011;2841;44.526;11.360;2023-05-23T03:20:03;16.97;;;8.67;;
5638;SDS011;2841;44.526;11.360;2023-05-23T03:22:33;16.40;;;10.63;;
5638;SDS011;2841;44.526;11.360;2023-05-23T03:25:00;21.77;;;11.60;;
5638;SDS011;2841;44.526;11.360;2023-05-23T03:27:29;17.73;;;10.40;;
5638;SDS011;2841;44.526;11.360;2023-05-23T03:29:56;21.47;;;10.20;;
5638;SDS011;2841;44.526;11.360;2023-05-23T03:32:23;14.67;;;9.90;;
5638;SDS011;2841;44.526;11.360;2023-05-23T03:34:50;13.93;;;8.67;;
5638;SDS011;2841;44.526;11.360;2023-05-23T03:37:17;15.53;;;10.00;;
5638;SDS011;2841;44.526;11.360;2023-05-23T03:39:45;14.30;;;10.07;;
5638;SDS011;2841;44.526;11.360;2023-05-23T03:42:12;15.33;;;9.33;;
5638;SDS011;2841;44.526;11.360;2023-05-23T03:44:40;12.43;;;9.20;;
5638;SDS011;2841;44.526;11.360;2023-05-23T03:47:07;12.90;;;9.70;;
5638;SDS011;2841;44.526;11.360;2023-05-23T03:49:34;18.17;;;10.03;;
5638;SDS011;2841;44.526;11.360;2023-05-23T03:52:01;15.23;;;9.77;;
5638;SDS011;2841;44.526;11.360;2023-05-23T03:54:28;18.80;;;10.10;;
5638;SDS011;2841;44.526;11.360;2023-05-23T03:56:55;12.90;;;8.70;;
5638;SDS011;2841;44.526;11.360;2023-05-23T03:59:22;13.23;;;9.50;;
5638;SDS011;2841;44.526;11.360;2023-05-23T04:01:50;14.73;;;9.10;;
5638;SDS011;2841;44.526;11.360;2023-05-23T04:04:17;13.17;;;8.40;;
5638;SDS011;2841;44.526;11.360;2023-05-23T04:06:45;14.33;;;9.40;;
5638;SDS011;2841;44.526;11.360;2023-05-23T04:09:12;18.63;;;10.03;;
5638;SDS011;2841;44.526;11.360;2023-05-23T04:11:39;14.13;;;9.63;;
5638;SDS011;2841;44.526;11.360;2023-05-23T04:14:06;17.67;;;9.97;;
5638;SDS011;2841;44.526;11.360;2023-05-23T04:16:33;16.47;;;8.93;;
5638;SDS011;2841;44.526;11.360;2023-05-23T04:19:02;13.03;;;8.03;;
5638;SDS011;2841;44.526;11.360;2023-05-23T04:21:29;17.57;;;8.90;;
5638;SDS011;2841;44.526;11.360;2023-05-23T04:23:57;25.67;;;9.23;;
5638;SDS011;2841;44.526;11.360;2023-05-23T04:26:23;13.70;;;9.07;;
5638;SDS011;2841;44.526;11.360;2023-05-23T04:28:50;14.30;;;8.80;;
5638;SDS011;2841;44.526;11.360;2023-05-23T04:31:18;29.90;;;11.10;;
5638;SDS011;2841;44.526;11.360;2023-05-23T04:33:46;22.20;;;9.70;;
5638;SDS011;2841;44.526;11.360;2023-05-23T04:36:14;15.40;;;10.27;;
5638;SDS011;2841;44.526;11.360;2023-05-23T04:38:42;12.90;;;8.47;;
5638;SDS011;2841;44.526;11.360;2023-05-23T04:41:09;14.50;;;9.93;;
5638;SDS011;2841;44.526;11.360;2023-05-23T04:43:36;20.40;;;9.17;;
5638;SDS011;2841;44.526;11.360;2023-05-23T04:46:06;17.80;;;9.50;;
5638;SDS011;2841;44.526;11.360;2023-05-23T04:48:34;13.27;;;8.73;;
5638;SDS011;2841;44.526;11.360;2023-05-23T04:51:01;21.20;;;9.53;;
5638;SDS011;2841;44.526;11.360;2023-05-23T04:53:33;24.03;;;9.77;;
5638;SDS011;2841;44.526;11.360;2023-05-23T04:56:01;17.27;;;8.73;;
5638;SDS011;2841;44.526;11.360;2023-05-23T04:58:27;15.50;;;9.57;;
5638;SDS011;2841;44.526;11.360;2023-05-23T05:00:55;13.90;;;8.53;;
5638;SDS011;2841;44.526;11.360;2023-05-23T05:03:22;14.70;;;9.17;;
5638;SDS011;2841;44.526;11.360;2023-05-23T05:05:50;37.67;;;9.53;;
5638;SDS011;2841;44.526;11.360;2023-05-23T05:08:17;17.07;;;9.70;;
5638;SDS011;2841;44.526;11.360;2023-05-23T05:10:46;13.17;;;9.23;;
5638;SDS011;2841;44.526;11.360;2023-05-23T05:13:13;18.57;;;10.90;;
5638;SDS011;2841;44.526;11.360;2023-05-23T05:15:40;15.67;;;9.20;;
5638;SDS011;2841;44.526;11.360;2023-05-23T05:18:07;14.97;;;9.77;;
5638;SDS011;2841;44.526;11.360;2023-05-23T05:20:36;13.83;;;10.13;;
5638;SDS011;2841;44.526;11.360;2023-05-23T05:23:03;13.57;;;9.57;;
5638;SDS011;2841;44.526;11.360;2023-05-23T05:25:30;16.40;;;9.00;;
5638;SDS011;2841;44.526;11.360;2023-05-23T05:28:01;14.47;;;9.30;;
5638;SDS011;2841;44.526;11.360;2023-05-23T05:30:30;19.43;;;9.70;;
5638;SDS011;2841;44.526;11.360;2023-05-23T05:32:57;18.17;;;10.00;;
5638;SDS011;2841;44.526;11.360;2023-05-23T05:35:26;13.20;;;8.43;;
5638;SDS011;2841;44.526;11.360;2023-05-23T05:37:53;14.30;;;8.37;;
5638;SDS011;2841;44.526;11.360;2023-05-23T05:40:20;15.10;;;7.63;;
5638;SDS011;2841;44.526;11.360;2023-05-23T05:42:47;13.47;;;8.20;;
5638;SDS011;2841;44.526;11.360;2023-05-23T05:45:15;11.70;;;8.60;;
5638;SDS011;2841;44.526;11.360;2023-05-23T05:47:43;17.43;;;8.57;;
5638;SDS011;2841;44.526;11.360;2023-05-23T05:50:10;18.03;;;8.10;;
5638;SDS011;2841;44.526;11.360;2023-05-23T05:52:37;13.63;;;8.27;;
5638;SDS011;2841;44.526;11.360;2023-05-23T05:55:05;16.23;;;8.10;;
5638;SDS011;2841;44.526;11.360;2023-05-23T05:57:32;15.57;;;9.57;;
5638;SDS011;2841;44.526;11.360;2023-05-23T06:00:03;16.57;;;8.70;;
5638;SDS011;2841;44.526;11.360;2023-05-23T06:02:37;12.13;;;9.23;;
5638;SDS011;2841;44.526;11.360;2023-05-23T06:05:05;14.67;;;8.27;;
5638;SDS011;2841;44.526;11.360;2023-05-23T06:07:33;14.60;;;8.37;;
5638;SDS011;2841;44.526;11.360;2023-05-23T06:10:01;12.50;;;8.73;;
5638;SDS011;2841;44.526;11.360;2023-05-23T06:12:28;15.00;;;7.97;;
5638;SDS011;2841;44.526;11.360;2023-05-23T06:14:55;15.67;;;9.00;;
5638;SDS011;2841;44.526;11.360;2023-05-23T06:17:22;12.10;;;8.00;;
5638;SDS011;2841;44.526;11.360;2023-05-23T06:19:51;18.93;;;9.10;;
5638;SDS011;2841;44.526;11.360;2023-05-23T06:22:18;18.33;;;7.80;;
5638;SDS011;2841;44.526;11.360;2023-05-23T06:24:45;10.77;;;8.13;;
5638;SDS011;2841;44.526;11.360;2023-05-23T06:27:12;19.50;;;8.97;;
5638;SDS011;2841;44.526;11.360;2023-05-23T06:29:39;12.43;;;8.13;;
5638;SDS011;2841;44.526;11.360;2023-05-23T06:32:06;10.53;;;7.13;;
5638;SDS011;2841;44.526;11.360;2023-05-23T06:34:33;13.73;;;7.90;;
5638;SDS011;2841;44.526;11.360;2023-05-23T06:37:02;15.03;;;8.37;;
5638;SDS011;2841;44.526;11.360;2023-05-23T06:39:29;16.17;;;9.17;;
5638;SDS011;2841;44.526;11.360;2023-05-23T06:41:56;17.20;;;9.10;;
5638;SDS011;2841;44.526;11.360;2023-05-23T06:44:23;29.83;;;9.03;;
5638;SDS011;2841;44.526;11.360;2023-05-23T06:46:50;11.20;;;8.07;;
5638;SDS011;2841;44.526;11.360;2023-05-23T06:49:21;12.37;;;8.73;;
5638;SDS011;2841;44.526;11.360;2023-05-23T06:51:48;22.70;;;9.10;;
5638;SDS011;2841;44.526;11.360;2023-05-23T06:54:16;14.27;;;7.57;;
5638;SDS011;2841;44.526;11.360;2023-05-23T06:56:44;10.10;;;8.10;;
5638;SDS011;2841;44.526;11.360;2023-05-23T06:59:11;13.27;;;7.80;;
5638;SDS011;2841;44.526;11.360;2023-05-23T07:01:38;19.93;;;7.90;;
5638;SDS011;2841;44.526;11.360;2023-05-23T07:04:05;12.93;;;8.87;;
5638;SDS011;2841;44.526;11.360;2023-05-23T07:06:32;9.53;;;7.40;;
5638;SDS011;2841;44.526;11.360;2023-05-23T07:09:00;21.50;;;7.33;;
5638;SDS011;2841;44.526;11.360;2023-05-23T07:11:29;13.30;;;8.17;;
5638;SDS011;2841;44.526;11.360;2023-05-23T07:13:56;12.43;;;8.03;;
5638;SDS011;2841;44.526;11.360;2023-05-23T07:16:24;13.47;;;8.20;;
5638;SDS011;2841;44.526;11.360;2023-05-23T07:18:51;12.03;;;7.50;;
5638;SDS011;2841;44.526;11.360;2023-05-23T07:21:18;10.77;;;7.07;;
5638;SDS011;2841;44.526;11.360;2023-05-23T07:23:44;18.53;;;7.40;;
5638;SDS011;2841;44.526;11.360;2023-05-23T07:26:11;13.33;;;6.30;;
5638;SDS011;2841;44.526;11.360;2023-05-23T07:28:40;13.40;;;8.47;;
5638;SDS011;2841;44.526;11.360;2023-05-23T07:31:06;11.70;;;7.70;;
5638;SDS011;2841;44.526;11.360;2023-05-23T07:33:34;12.53;;;7.90;;
5638;SDS011;2841;44.526;11.360;2023-05-23T07:36:01;11.23;;;7.00;;
5638;SDS011;2841;44.526;11.360;2023-05-23T07:38:28;11.50;;;8.07;;
5638;SDS011;2841;44.526;11.360;2023-05-23T07:40:55;19.90;;;8.10;;
5638;SDS011;2841;44.526;11.360;2023-05-23T07:43:21;13.80;;;7.73;;
5638;SDS011;2841;44.526;11.360;2023-05-23T07:45:50;17.70;;;7.10;;
5638;SDS011;2841;44.526;11.360;2023-05-23T07:48:17;12.17;;;7.47;;
5638;SDS011;2841;44.526;11.360;2023-05-23T07:50:44;15.70;;;8.37;;
5638;SDS011;2841;44.526;11.360;2023-05-23T07:53:11;12.70;;;7.80;;
5638;SDS011;2841;44.526;11.360;2023-05-23T07:55:38;19.03;;;7.63;;
5638;SDS011;2841;44.526;11.360;2023-05-23T07:58:06;25.07;;;8.47;;
5638;SDS011;2841;44.526;11.360;2023-05-23T08:00:33;16.93;;;8.00;;
5638;SDS011;2841;44.526;11.360;2023-05-23T08:03:02;10.53;;;8.17;;
5638;SDS011;2841;44.526;11.360;2023-05-23T08:05:29;13.40;;;7.50;;
5638;SDS011;2841;44.526;11.360;2023-05-23T08:07:56;13.40;;;9.03;;
5638;SDS011;2841;44.526;11.360;2023-05-23T08:10:23;13.33;;;7.90;;
5638;SDS011;2841;44.526;11.360;2023-05-23T08:12:52;17.70;;;9.93;;
5638;SDS011;2841;44.526;11.360;2023-05-23T08:15:19;15.43;;;9.23;;
5638;SDS011;2841;44.526;11.360;2023-05-23T08:17:47;16.60;;;8.97;;
5638;SDS011;2841;44.526;11.360;2023-05-23T08:20:15;16.50;;;8.70;;
5638;SDS011;2841;44.526;11.360;2023-05-23T08:22:42;13.90;;;9.10;;
5638;SDS011;2841;44.526;11.360;2023-05-23T08:25:09;11.90;;;8.60;;
5638;SDS011;2841;44.526;11.360;2023-05-23T08:27:36;21.93;;;10.43;;
5638;SDS011;2841;44.526;11.360;2023-05-23T08:30:04;13.13;;;8.83;;
5638;SDS011;2841;44.526;11.360;2023-05-23T08:32:32;17.10;;;8.70;;
5638;SDS011;2841;44.526;11.360;2023-05-23T08:34:59;13.00;;;9.53;;
5638;SDS011;2841;44.526;11.360;2023-05-23T08:37:27;11.07;;;8.90;;
5638;SDS011;2841;44.526;11.360;2023-05-23T08:39:55;12.37;;;7.90;;
5638;SDS011;2841;44.526;11.360;2023-05-23T08:42:21;15.07;;;9.20;;
5638;SDS011;2841;44.526;11.360;2023-05-23T08:44:48;18.07;;;10.50;;
5638;SDS011;2841;44.526;11.360;2023-05-23T08:47:15;17.70;;;9.03;;
5638;SDS011;2841;44.526;11.360;2023-05-23T08:49:43;15.93;;;8.50;;
5638;SDS011;2841;44.526;11.360;2023-05-23T08:52:11;15.60;;;8.70;;
5638;SDS011;2841;44.526;11.360;2023-05-23T08:54:40;11.93;;;9.43;;
5638;SDS011;2841;44.526;11.360;2023-05-23T08:57:08;12.43;;;8.30;;
5638;SDS011;2841;44.526;11.360;2023-05-23T08:59:35;13.37;;;8.77;;
5638;SDS011;2841;44.526;11.360;2023-05-23T09:02:04;20.47;;;9.43;;
5638;SDS011;2841;44.526;11.360;2023-05-23T09:04:35;18.30;;;9.47;;
5638;SDS011;2841;44.526;11.360;2023-05-23T09:07:03;12.20;;;8.67;;
5638;SDS011;2841;44.526;11.360;2023-05-23T09:09:30;17.70;;;9.47;;
5638;SDS011;2841;44.526;11.360;2023-05-23T09:11:59;16.00;;;9.60;;
5638;SDS011;2841;44.526;11.360;2023-05-23T09:14:27;16.00;;;9.60;;
5638;SDS011;2841;44.526;11.360;2023-05-23T09:16:59;13.40;;;8.60;;
5638;SDS011;2841;44.526;11.360;2023-05-23T09:19:27;14.63;;;8.30;;
5638;SDS011;2841;44.526;11.360;2023-05-23T09:21:55;11.30;;;8.17;;
5638;SDS011;2841;44.526;11.360;2023-05-23T09:24:22;11.17;;;9.20;;
5638;SDS011;2841;44.526;11.360;2023-05-23T09:26:48;11.70;;;6.77;;
5638;SDS011;2841;44.526;11.360;2023-05-23T09:29:19;11.90;;;7.93;;
5638;SDS011;2841;44.526;11.360;2023-05-23T09:31:46;12.63;;;8.60;;
5638;SDS011;2841;44.526;11.360;2023-05-23T09:34:13;14.80;;;9.40;;
5638;SDS011;2841;44.526;11.360;2023-05-23T09:36:40;22.90;;;10.20;;
5638;SDS011;2841;44.526;11.360;2023-05-23T09:39:09;14.47;;;9.00;;
5638;SDS011;2841;44.526;11.360;2023-05-23T09:41:37;24.93;;;10.87;;
5638;SDS011;2841;44.526;11.360;2023-05-23T09:44:05;15.00;;;10.40;;
5638;SDS011;2841;44.526;11.360;2023-05-23T09:46:35;12.73;;;7.87;;
5638;SDS011;2841;44.526;11.360;2023-05-23T09:49:13;16.07;;;8.30;;
5638;SDS011;2841;44.526;11.360;2023-05-23T09:51:42;10.47;;;7.87;;
5638;SDS011;2841;44.526;11.360;2023-05-23T09:54:09;13.90;;;6.80;;
5638;SDS011;2841;44.526;11.360;2023-05-23T09:56:37;18.63;;;9.10;;
5638;SDS011;2841;44.526;11.360;2023-05-23T09:59:07;11.53;;;7.00;;
5638;SDS011;2841;44.526;11.360;2023-05-23T10:01:40;11.50;;;6.10;;
5638;SDS011;2841;44.526;11.360;2023-05-23T10:04:10;13.03;;;8.00;;
5638;SDS011;2841;44.526;11.360;2023-05-23T10:06:40;13.70;;;8.60;;
5638;SDS011;2841;44.526;11.360;2023-05-23T10:09:08;16.03;;;8.13;;
5638;SDS011;2841;44.526;11.360;2023-05-23T10:14:48;10.30;;;7.47;;
5638;SDS011;2841;44.526;11.360;2023-05-23T10:17:20;12.00;;;7.43;;
5638;SDS011;2841;44.526;11.360;2023-05-23T10:19:56;9.87;;;6.70;;
5638;SDS011;2841;44.526;11.360;2023-05-23T10:22:26;11.80;;;6.60;;
5638;SDS011;2841;44.526;11.360;2023-05-23T10:24:53;9.10;;;6.60;;
5638;SDS011;2841;44.526;11.360;2023-05-23T10:27:20;9.30;;;7.10;;
5638;SDS011;2841;44.526;11.360;2023-05-23T10:29:48;8.47;;;6.20;;
5638;SDS011;2841;44.526;11.360;2023-05-23T10:32:17;9.80;;;7.33;;
5638;SDS011;2841;44.526;11.360;2023-05-23T10:34:50;14.80;;;7.83;;
5638;SDS011;2841;44.526;11.360;2023-05-23T10:37:24;9.13;;;6.77;;
5638;SDS011;2841;44.526;11.360;2023-05-23T10:39:58;9.33;;;7.03;;
5638;SDS011;2841;44.526;11.360;2023-05-23T10:42:35;13.73;;;7.93;;
5638;SDS011;2841;44.526;11.360;2023-05-23T10:45:14;15.83;;;7.93;;
5638;SDS011;2841;44.526;11.360;2023-05-23T10:47:45;19.93;;;7.73;;
5638;SDS011;2841;44.526;11.360;2023-05-23T10:50:12;9.83;;;6.70;;
5638;SDS011;2841;44.526;11.360;2023-05-23T10:52:41;13.90;;;8.50;;
5638;SDS011;2841;44.526;11.360;2023-05-23T10:55:13;12.00;;;7.50;;
5638;SDS011;2841;44.526;11.360;2023-05-23T10:57:41;8.00;;;6.10;;
5638;SDS011;2841;44.526;11.360;2023-05-23T11:00:12;17.00;;;6.70;;
5638;SDS011;2841;44.526;11.360;2023-05-23T11:02:46;11.03;;;6.50;;
5638;SDS011;2841;44.526;11.360;2023-05-23T11:05:20;10.90;;;7.07;;
5638;SDS011;2841;44.526;11.360;2023-05-23T11:13:23;14.40;;;7.60;;
5638;SDS011;2841;44.526;11.360;2023-05-23T11:15:50;15.10;;;5.73;;
5638;SDS011;2841;44.526;11.360;2023-05-23T11:18:23;8.60;;;5.60;;
5638;SDS011;2841;44.526;11.360;2023-05-23T11:20:54;9.13;;;5.17;;
5638;SDS011;2841;44.526;11.360;2023-05-23T11:23:23;8.77;;;5.20;;
5638;SDS011;2841;44.526;11.360;2023-05-23T11:26:05;10.93;;;6.20;;
5638;SDS011;2841;44.526;11.360;2023-05-23T11:28:56;7.27;;;5.57;;
5638;SDS011;2841;44.526;11.360;2023-05-23T11:31:23;10.63;;;6.90;;
5638;SDS011;2841;44.526;11.360;2023-05-23T11:33:52;11.10;;;6.67;;
5638;SDS011;2841;44.526;11.360;2023-05-23T11:36:19;11.93;;;7.17;;
5638;SDS011;2841;44.526;11.360;2023-05-23T11:38:47;12.40;;;6.20;;
5638;SDS011;2841;44.526;11.360;2023-05-23T11:41:16;17.53;;;6.40;;
5638;SDS011;2841;44.526;11.360;2023-05-23T11:43:49;9.60;;;7.23;;
5638;SDS011;2841;44.526;11.360;2023-05-23T11:46:17;10.70;;;7.03;;
5638;SDS011;2841;44.526;11.360;2023-05-23T11:48:44;12.53;;;7.20;;
5638;SDS011;2841;44.526;11.360;2023-05-23T11:51:13;8.50;;;6.43;;
5638;SDS011;2841;44.526;11.360;2023-05-23T11:53:40;12.13;;;6.30;;
5638;SDS011;2841;44.526;11.360;2023-05-23T11:56:07;10.83;;;6.53;;
5638;SDS011;2841;44.526;11.360;2023-05-23T11:58:35;9.63;;;5.90;;
5638;SDS011;2841;44.526;11.360;2023-05-23T12:01:03;7.90;;;5.50;;
5638;SDS011;2841;44.526;11.360;2023-05-23T12:03:31;12.30;;;6.10;;
5638;SDS011;2841;44.526;11.360;2023-05-23T12:05:59;11.47;;;7.53;;
5638;SDS011;2841;44.526;11.360;2023-05-23T12:08:27;8.43;;;5.20;;
5638;SDS011;2841;44.526;11.360;2023-05-23T12:10:55;10.67;;;5.93;;
5638;SDS011;2841;44.526;11.360;2023-05-23T12:13:23;11.93;;;5.43;;
5638;SDS011;2841;44.526;11.360;2023-05-23T12:15:52;10.30;;;5.80;;
5638;SDS011;2841;44.526;11.360;2023-05-23T12:18:20;12.30;;;5.53;;
5638;SDS011;2841;44.526;11.360;2023-05-23T12:20:47;11.70;;;5.13;;
5638;SDS011;2841;44.526;11.360;2023-05-23T12:23:18;10.50;;;5.90;;
5638;SDS011;2841;44.526;11.360;2023-05-23T12:25:49;12.73;;;5.80;;
5638;SDS011;2841;44.526;11.360;2023-05-23T12:28:17;5.67;;;4.70;;
5638;SDS011;2841;44.526;11.360;2023-05-23T12:30:45;9.60;;;4.97;;
5638;SDS011;2841;44.526;11.360;2023-05-23T12:33:12;7.53;;;5.10;;
5638;SDS011;2841;44.526;11.360;2023-05-23T12:35:41;10.50;;;5.23;;
5638;SDS011;2841;44.526;11.360;2023-05-23T12:38:08;11.73;;;5.73;;
5638;SDS011;2841;44.526;11.360;2023-05-23T12:43:37;7.30;;;5.20;;
5638;SDS011;2841;44.526;11.360;2023-05-23T12:46:04;8.90;;;6.20;;
5638;SDS011;2841;44.526;11.360;2023-05-23T12:48:32;8.93;;;5.33;;
5638;SDS011;2841;44.526;11.360;2023-05-23T12:50:59;8.13;;;5.77;;
5638;SDS011;2841;44.526;11.360;2023-05-23T12:53:27;5.93;;;4.60;;
5638;SDS011;2841;44.526;11.360;2023-05-23T12:55:54;27.83;;;5.47;;
5638;SDS011;2841;44.526;11.360;2023-05-23T12:58:23;15.93;;;5.07;;
5638;SDS011;2841;44.526;11.360;2023-05-23T13:00:50;11.00;;;5.47;;
5638;SDS011;2841;44.526;11.360;2023-05-23T13:03:17;6.20;;;5.20;;
5638;SDS011;2841;44.526;11.360;2023-05-23T13:05:44;8.10;;;6.00;;
5638;SDS011;2841;44.526;11.360;2023-05-23T13:08:11;9.70;;;4.93;;
5638;SDS011;2841;44.526;11.360;2023-05-23T13:10:38;10.07;;;5.00;;
5638;SDS011;2841;44.526;11.360;2023-05-23T13:13:05;5.40;;;4.90;;
5638;SDS011;2841;44.526;11.360;2023-05-23T13:15:34;5.20;;;4.40;;
5638;SDS011;2841;44.526;11.360;2023-05-23T13:18:01;8.63;;;5.07;;
5638;SDS011;2841;44.526;11.360;2023-05-23T13:20:28;7.80;;;5.07;;
5638;SDS011;2841;44.526;11.360;2023-05-23T13:22:55;6.03;;;3.80;;
5638;SDS011;2841;44.526;11.360;2023-05-23T13:25:23;12.40;;;4.97;;
5638;SDS011;2841;44.526;11.360;2023-05-23T13:27:50;8.13;;;4.40;;
5638;SDS011;2841;44.526;11.360;2023-05-23T13:30:18;6.57;;;3.80;;
5638;SDS011;2841;44.526;11.360;2023-05-23T13:32:46;5.90;;;4.03;;
5638;SDS011;2841;44.526;11.360;2023-05-23T13:35:13;6.20;;;4.30;;
5638;SDS011;2841;44.526;11.360;2023-05-23T13:37:40;17.50;;;4.77;;
5638;SDS011;2841;44.526;11.360;2023-05-23T13:40:10;6.00;;;4.50;;
5638;SDS011;2841;44.526;11.360;2023-05-23T13:42:38;6.57;;;5.40;;
5638;SDS011;2841;44.526;11.360;2023-05-23T13:45:05;8.43;;;4.60;;
5638;SDS011;2841;44.526;11.360;2023-05-23T13:47:33;4.93;;;3.73;;
5638;SDS011;2841;44.526;11.360;2023-05-23T13:50:03;5.70;;;4.60;;
5638;SDS011;2841;44.526;11.360;2023-05-23T13:52:31;27.07;;;4.20;;
5638;SDS011;2841;44.526;11.360;2023-05-23T13:54:58;5.90;;;4.40;;
5638;SDS011;2841;44.526;11.360;2023-05-23T13:57:25;5.60;;;4.17;;
5638;SDS011;2841;44.526;11.360;2023-05-23T13:59:52;6.33;;;4.60;;
5638;SDS011;2841;44.526;11.360;2023-05-23T14:02:19;8.03;;;4.57;;
5638;SDS011;2841;44.526;11.360;2023-05-23T14:04:47;8.80;;;5.07;;
5638;SDS011;2841;44.526;11.360;2023-05-23T14:07:15;4.97;;;3.83;;
5638;SDS011;2841;44.526;11.360;2023-05-23T14:09:43;9.10;;;3.80;;
5638;SDS011;2841;44.526;11.360;2023-05-23T14:12:10;8.07;;;4.97;;
5638;SDS011;2841;44.526;11.360;2023-05-23T14:14:36;6.50;;;4.70;;
5638;SDS011;2841;44.526;11.360;2023-05-23T14:17:04;4.73;;;3.67;;
5638;SDS011;2841;44.526;11.360;2023-05-23T14:19:31;5.00;;;4.00;;
5638;SDS011;2841;44.526;11.360;2023-05-23T14:21:58;4.93;;;4.40;;
5638;SDS011;2841;44.526;11.360;2023-05-23T14:24:26;4.10;;;3.50;;
5638;SDS011;2841;44.526;11.360;2023-05-23T14:26:53;6.43;;;4.67;;
5638;SDS011;2841;44.526;11.360;2023-05-23T14:29:20;6.93;;;4.27;;
5638;SDS011;2841;44.526;11.360;2023-05-23T14:31:47;9.67;;;5.23;;
5638;SDS011;2841;44.526;11.360;2023-05-23T14:34:14;5.00;;;3.73;;
5638;SDS011;2841;44.526;11.360;2023-05-23T14:36:41;4.27;;;3.47;;
5638;SDS011;2841;44.526;11.360;2023-05-23T14:39:08;6.50;;;4.00;;
5638;SDS011;2841;44.526;11.360;2023-05-23T14:41:36;9.90;;;3.70;;
5638;SDS011;2841;44.526;11.360;2023-05-23T14:44:03;5.60;;;3.50;;
5638;SDS011;2841;44.526;11.360;2023-05-23T14:46:30;8.93;;;3.50;;
5638;SDS011;2841;44.526;11.360;2023-05-23T14:48:57;7.63;;;3.63;;
5638;SDS011;2841;44.526;11.360;2023-05-23T14:51:24;7.80;;;4.00;;
5638;SDS011;2841;44.526;11.360;2023-05-23T14:53:52;5.33;;;4.07;;
5638;SDS011;2841;44.526;11.360;2023-05-23T14:56:19;5.30;;;3.70;;
5638;SDS011;2841;44.526;11.360;2023-05-23T14:58:48;6.00;;;3.97;;
5638;SDS011;2841;44.526;11.360;2023-05-23T15:01:15;5.63;;;3.67;;
5638;SDS011;2841;44.526;11.360;2023-05-23T15:03:42;7.23;;;3.97;;
5638;SDS011;2841;44.526;11.360;2023-05-23T15:06:10;4.90;;;3.50;;